createdAt,value
2017-04-25T00:00:16.914Z,0
2017-04-25T00:01:16.284Z,0
2017-04-25T00:02:16.560Z,0
2017-04-25T00:03:16.580Z,0
2017-04-25T00:04:16.928Z,0
2017-04-25T00:05:16.194Z,0
2017-04-25T00:06:16.484Z,0
2017-04-25T00:07:16.140Z,0
2017-04-25T00:08:16.423Z,0
2017-04-25T00:09:16.792Z,0
2017-04-25T00:10:16.714Z,0
2017-04-25T00:11:16.725Z,0
2017-04-25T00:12:16.681Z,0
2017-04-25T00:13:16.654Z,0
2017-04-25T00:14:16.627Z,0
2017-04-25T00:15:16.602Z,0
2017-04-25T00:16:16.565Z,0
2017-04-25T00:17:16.554Z,0
2017-04-25T00:18:16.543Z,0
2017-04-25T00:19:16.600Z,0
2017-04-25T00:20:16.494Z,0
2017-04-25T00:21:16.613Z,0
2017-04-25T00:22:16.139Z,0
2017-04-25T00:23:16.438Z,0
2017-04-25T00:24:15.804Z,0
2017-04-25T00:25:16.083Z,0
2017-04-25T00:26:16.052Z,0
2017-04-25T00:27:16.336Z,0
2017-04-25T00:28:16.035Z,0
2017-04-25T00:29:16.312Z,0
2017-04-25T00:30:16.283Z,0
2017-04-25T00:31:15.664Z,0
2017-04-25T00:32:15.934Z,0
2017-04-25T00:33:15.930Z,0
2017-04-25T00:34:15.903Z,0
2017-04-25T00:35:16.214Z,0
2017-04-25T00:36:15.554Z,0
2017-04-25T00:37:15.833Z,0
2017-04-25T00:38:15.531Z,0
2017-04-25T00:39:15.785Z,0
2017-04-25T00:40:15.765Z,0
2017-04-25T00:41:16.089Z,0
2017-04-25T00:42:16.023Z,0
2017-04-25T00:43:15.408Z,0
2017-04-25T00:44:15.384Z,0
2017-04-25T00:45:15.983Z,0
2017-04-25T00:46:15.944Z,0
2017-04-25T00:47:15.904Z,0
2017-04-25T00:48:15.902Z,0
2017-04-25T00:49:15.873Z,0
2017-04-25T00:50:15.550Z,0
2017-04-25T00:51:15.835Z,0
2017-04-25T00:52:15.194Z,0
2017-04-25T00:53:15.495Z,0
2017-04-25T00:54:15.475Z,0
2017-04-25T00:55:15.754Z,0
2017-04-25T00:56:15.713Z,0
2017-04-25T00:57:15.191Z,0
2017-04-25T00:58:15.085Z,0
2017-04-25T00:59:15.129Z,0
2017-04-25T01:00:15.654Z,0
2017-04-25T01:01:15.313Z,0
2017-04-25T01:02:15.603Z,0
2017-04-25T01:03:15.584Z,0
2017-04-25T01:04:15.563Z,0
2017-04-25T01:05:15.533Z,0
2017-04-25T01:06:15.541Z,0
2017-04-25T01:07:15.496Z,0
2017-04-25T01:08:15.164Z,0
2017-04-25T01:09:15.143Z,0
2017-04-25T01:10:14.830Z,0
2017-04-25T01:11:15.213Z,0
2017-04-25T01:12:15.164Z,0
2017-04-25T01:13:15.373Z,0
2017-04-25T01:14:15.698Z,0
2017-04-25T01:15:15.337Z,0
2017-04-25T01:16:15.303Z,0
2017-04-25T01:17:15.305Z,0
2017-04-25T01:18:15.263Z,0
2017-04-25T01:19:14.945Z,0
2017-04-25T01:20:15.233Z,0
2017-04-25T01:21:14.895Z,0
2017-04-25T01:22:15.185Z,0
2017-04-25T01:23:14.552Z,0
2017-04-25T01:24:14.552Z,0
2017-04-25T01:25:14.804Z,0
2017-04-25T01:26:14.474Z,0
2017-04-25T01:27:14.455Z,0
2017-04-25T01:28:14.768Z,0
2017-04-25T01:29:15.025Z,0
2017-04-25T01:30:15.015Z,0
2017-04-25T01:31:14.690Z,0
2017-04-25T01:32:14.714Z,0
2017-04-25T01:33:14.660Z,0
2017-04-25T01:34:14.628Z,0
2017-04-25T01:35:14.913Z,0
2017-04-25T01:36:14.586Z,0
2017-04-25T01:37:14.865Z,0
2017-04-25T01:38:14.843Z,0
2017-04-25T01:39:14.815Z,0
2017-04-25T01:40:14.223Z,0
2017-04-25T01:41:13.860Z,0
2017-04-25T01:42:14.758Z,0
2017-04-25T01:43:14.746Z,0
2017-04-25T01:44:14.710Z,0
2017-04-25T01:45:14.701Z,0
2017-04-25T01:46:14.672Z,0
2017-04-25T01:47:14.642Z,0
2017-04-25T01:48:14.637Z,0
2017-04-25T01:49:14.608Z,0
2017-04-25T01:50:14.596Z,0
2017-04-25T01:51:14.584Z,0
2017-04-25T01:52:14.547Z,0
2017-04-25T01:53:14.565Z,0
2017-04-25T01:54:14.193Z,0
2017-04-25T01:55:13.883Z,0
2017-04-25T01:56:14.167Z,0
2017-04-25T01:57:14.465Z,0
2017-04-25T01:58:14.119Z,0
2017-04-25T01:59:14.090Z,0
2017-04-25T02:00:14.058Z,0
2017-04-25T02:01:14.363Z,0
2017-04-25T02:02:14.025Z,0
2017-04-25T02:03:13.728Z,0
2017-04-25T02:04:13.984Z,0
2017-04-25T02:05:13.972Z,0
2017-04-25T02:06:13.339Z,0
2017-04-25T02:07:14.283Z,0
2017-04-25T02:08:14.204Z,0
2017-04-25T02:09:13.580Z,0
2017-04-25T02:10:14.168Z,0
2017-04-25T02:11:14.134Z,0
2017-04-25T02:12:14.116Z,0
2017-04-25T02:13:14.092Z,0
2017-04-25T02:14:13.763Z,0
2017-04-25T02:15:13.746Z,0
2017-04-25T02:16:14.033Z,0
2017-04-25T02:17:13.694Z,0
2017-04-25T02:18:13.693Z,0
2017-04-25T02:19:13.664Z,0
2017-04-25T02:20:13.631Z,0
2017-04-25T02:21:13.929Z,0
2017-04-25T02:22:13.295Z,0
2017-04-25T02:23:13.274Z,0
2017-04-25T02:24:13.251Z,0
2017-04-25T02:25:13.560Z,0
2017-04-25T02:26:13.522Z,0
2017-04-25T02:27:13.490Z,0
2017-04-25T02:28:13.169Z,0
2017-04-25T02:29:13.150Z,0
2017-04-25T02:30:13.422Z,0
2017-04-25T02:31:12.813Z,0
2017-04-25T02:32:13.704Z,0
2017-04-25T02:33:13.731Z,0
2017-04-25T02:34:13.642Z,0
2017-04-25T02:35:13.063Z,0
2017-04-25T02:36:13.301Z,0
2017-04-25T02:37:13.282Z,0
2017-04-25T02:38:13.251Z,0
2017-04-25T02:39:13.343Z,0
2017-04-25T02:40:13.306Z,0
2017-04-25T02:41:13.182Z,0
2017-04-25T02:42:12.884Z,0
2017-04-25T02:43:13.454Z,0
2017-04-25T02:44:13.120Z,0
2017-04-25T02:45:13.470Z,0
2017-04-25T02:46:13.485Z,0
2017-04-25T02:47:13.382Z,0
2017-04-25T02:48:13.383Z,0
2017-04-25T02:49:13.103Z,0
2017-04-25T02:50:13.368Z,0
2017-04-25T02:51:12.711Z,0
2017-04-25T02:52:13.271Z,0
2017-04-25T02:53:12.724Z,0
2017-04-25T02:54:12.303Z,0
2017-04-25T02:55:12.633Z,0
2017-04-25T02:56:12.888Z,0
2017-04-25T02:57:12.664Z,0
2017-04-25T02:58:12.523Z,0
2017-04-25T02:59:12.810Z,0
2017-04-25T03:00:13.182Z,0
2017-04-25T03:01:13.209Z,0
2017-04-25T03:02:12.752Z,0
2017-04-25T03:03:12.711Z,0
2017-04-25T03:04:12.723Z,0
2017-04-25T03:05:12.365Z,0
2017-04-25T03:06:12.698Z,0
2017-04-25T03:07:12.326Z,0
2017-04-25T03:08:12.689Z,0
2017-04-25T03:09:12.923Z,0
2017-04-25T03:10:12.581Z,0
2017-04-25T03:11:12.539Z,0
2017-04-25T03:12:12.530Z,0
2017-04-25T03:13:12.499Z,0
2017-04-25T03:14:12.525Z,0
2017-04-25T03:15:12.860Z,0
2017-04-25T03:16:12.448Z,0
2017-04-25T03:17:12.734Z,0
2017-04-25T03:18:12.809Z,0
2017-04-25T03:19:12.745Z,0
2017-04-25T03:20:12.361Z,0
2017-04-25T03:21:12.323Z,0
2017-04-25T03:22:12.620Z,0
2017-04-25T03:23:12.283Z,0
2017-04-25T03:24:12.257Z,0
2017-04-25T03:25:12.261Z,0
2017-04-25T03:26:11.913Z,0
2017-04-25T03:27:11.892Z,0
2017-04-25T03:28:12.484Z,0
2017-04-25T03:29:12.156Z,0
2017-04-25T03:30:12.425Z,0
2017-04-25T03:31:12.106Z,0
2017-04-25T03:32:12.450Z,0
2017-04-25T03:33:12.053Z,0
2017-04-25T03:34:12.053Z,0
2017-04-25T03:35:12.317Z,0
2017-04-25T03:36:12.295Z,0
2017-04-25T03:37:12.262Z,0
2017-04-25T03:38:12.083Z,0
2017-04-25T03:39:12.298Z,0
2017-04-25T03:40:12.326Z,0
2017-04-25T03:41:11.574Z,0
2017-04-25T03:42:11.672Z,0
2017-04-25T03:43:12.144Z,0
2017-04-25T03:44:11.553Z,0
2017-04-25T03:45:12.100Z,0
2017-04-25T03:46:12.210Z,0
2017-04-25T03:47:12.041Z,0
2017-04-25T03:48:12.157Z,4
2017-04-25T03:49:11.718Z,4
2017-04-25T03:50:11.770Z,4
2017-04-25T03:51:11.672Z,0
2017-04-25T03:52:11.939Z,4
2017-04-25T03:53:11.332Z,4
2017-04-25T03:54:11.599Z,4
2017-04-25T03:55:11.894Z,4
2017-04-25T03:56:11.272Z,4
2017-04-25T03:57:11.854Z,4
2017-04-25T03:58:11.523Z,4
2017-04-25T03:59:11.779Z,4
2017-04-25T04:00:11.494Z,8
2017-04-25T04:01:11.743Z,4
2017-04-25T04:02:11.740Z,8
2017-04-25T04:03:11.464Z,8
2017-04-25T04:04:11.703Z,8
2017-04-25T04:05:11.653Z,8
2017-04-25T04:06:11.424Z,8
2017-04-25T04:07:11.791Z,12
2017-04-25T04:08:11.303Z,12
2017-04-25T04:09:10.960Z,16
2017-04-25T04:10:10.932Z,16
2017-04-25T04:11:11.044Z,20
2017-04-25T04:12:11.543Z,20
2017-04-25T04:13:10.939Z,24
2017-04-25T04:14:11.473Z,32
2017-04-25T04:15:11.144Z,40
2017-04-25T04:16:11.115Z,40
2017-04-25T04:17:11.185Z,40
2017-04-25T04:18:11.073Z,44
2017-04-25T04:19:11.060Z,44
2017-04-25T04:20:10.713Z,52
2017-04-25T04:21:10.994Z,56
2017-04-25T04:22:11.271Z,60
2017-04-25T04:23:11.262Z,60
2017-04-25T04:24:11.242Z,68
2017-04-25T04:25:10.616Z,76
2017-04-25T04:26:10.979Z,76
2017-04-25T04:27:11.155Z,84
2017-04-25T04:28:10.534Z,92
2017-04-25T04:29:11.153Z,96
2017-04-25T04:30:11.086Z,96
2017-04-25T04:31:10.606Z,100
2017-04-25T04:32:10.777Z,116
2017-04-25T04:33:10.763Z,128
2017-04-25T04:34:11.001Z,140
2017-04-25T04:35:10.695Z,156
2017-04-25T04:36:10.347Z,164
2017-04-25T04:37:10.762Z,164
2017-04-25T04:38:10.015Z,160
2017-04-25T04:39:10.673Z,164
2017-04-25T04:40:10.566Z,172
2017-04-25T04:41:10.560Z,192
2017-04-25T04:42:10.225Z,200
2017-04-25T04:43:10.806Z,208
2017-04-25T04:44:10.835Z,216
2017-04-25T04:45:10.459Z,224
2017-04-25T04:46:10.142Z,220
2017-04-25T04:47:10.733Z,228
2017-04-25T04:48:10.397Z,216
2017-04-25T04:49:10.375Z,216
2017-04-25T04:50:10.667Z,244
2017-04-25T04:51:10.650Z,300
2017-04-25T04:52:10.603Z,324
2017-04-25T04:53:09.978Z,320
2017-04-25T04:54:10.587Z,272
2017-04-25T04:55:09.923Z,232
2017-04-25T04:56:10.514Z,320
2017-04-25T04:57:10.492Z,388
2017-04-25T04:58:10.161Z,388
2017-04-25T04:59:09.845Z,420
2017-04-25T05:00:09.829Z,456
2017-04-25T05:01:09.794Z,496
2017-04-25T05:02:09.789Z,544
2017-04-25T05:03:10.370Z,652
2017-04-25T05:04:10.380Z,788
2017-04-25T05:05:10.007Z,856
2017-04-25T05:06:10.002Z,812
2017-04-25T05:07:09.993Z,800
2017-04-25T05:08:09.989Z,764
2017-04-25T05:09:09.943Z,596
2017-04-25T05:10:09.922Z,608
2017-04-25T05:11:09.905Z,572
2017-04-25T05:12:09.903Z,604
2017-04-25T05:13:09.892Z,708
2017-04-25T05:14:10.168Z,904
2017-04-25T05:15:10.081Z,1076
2017-04-25T05:16:09.786Z,1192
2017-04-25T05:17:10.049Z,1268
2017-04-25T05:18:10.057Z,1300
2017-04-25T05:19:10.051Z,1364
2017-04-25T05:20:09.786Z,1448
2017-04-25T05:21:09.364Z,1444
2017-04-25T05:22:10.006Z,1444
2017-04-25T05:23:09.930Z,1340
2017-04-25T05:24:09.952Z,1304
2017-04-25T05:25:09.589Z,1248
2017-04-25T05:26:09.859Z,1128
2017-04-25T05:27:08.929Z,1096
2017-04-25T05:28:09.941Z,976
2017-04-25T05:29:09.482Z,884
2017-04-25T05:30:09.794Z,1000
2017-04-25T05:31:09.770Z,1064
2017-04-25T05:32:09.424Z,1028
2017-04-25T05:33:09.404Z,1248
2017-04-25T05:34:09.782Z,1312
2017-04-25T05:35:09.713Z,1464
2017-04-25T05:36:09.022Z,1348
2017-04-25T05:37:09.345Z,1460
2017-04-25T05:38:09.284Z,1576
2017-04-25T05:39:08.643Z,1696
2017-04-25T05:40:09.554Z,1948
2017-04-25T05:41:09.221Z,2216
2017-04-25T05:42:09.248Z,1968
2017-04-25T05:43:09.494Z,2056
2017-04-25T05:44:09.363Z,2200
2017-04-25T05:45:09.520Z,2208
2017-04-25T05:46:09.473Z,2176
2017-04-25T05:47:09.434Z,2324
2017-04-25T05:48:09.444Z,2544
2017-04-25T05:49:09.072Z,2912
2017-04-25T05:50:09.075Z,3196
2017-04-25T05:51:09.352Z,3508
2017-04-25T05:52:09.041Z,3528
2017-04-25T05:53:09.314Z,3664
2017-04-25T05:54:09.055Z,3800
2017-04-25T05:55:08.613Z,3856
2017-04-25T05:56:09.289Z,3936
2017-04-25T05:57:09.213Z,4120
2017-04-25T05:58:08.926Z,4312
2017-04-25T05:59:08.823Z,4504
2017-04-25T06:00:08.856Z,4956
2017-04-25T06:01:08.804Z,4996
2017-04-25T06:02:09.091Z,4984
2017-04-25T06:03:09.133Z,4740
2017-04-25T06:04:08.742Z,4836
2017-04-25T06:05:08.731Z,4372
2017-04-25T06:06:08.992Z,3832
2017-04-25T06:07:08.057Z,3960
2017-04-25T06:08:08.954Z,4496
2017-04-25T06:09:08.636Z,3860
2017-04-25T06:10:08.594Z,3684
2017-04-25T06:11:08.593Z,3528
2017-04-25T06:12:08.953Z,3268
2017-04-25T06:13:08.937Z,3388
2017-04-25T06:14:08.945Z,3288
2017-04-25T06:15:08.924Z,3560
2017-04-25T06:16:08.486Z,3888
2017-04-25T06:17:08.753Z,4604
2017-04-25T06:18:08.721Z,4244
2017-04-25T06:19:08.793Z,4040
2017-04-25T06:20:08.382Z,3536
2017-04-25T06:21:08.764Z,3240
2017-04-25T06:22:08.370Z,3128
2017-04-25T06:23:08.432Z,3184
2017-04-25T06:24:08.312Z,3360
2017-04-25T06:25:08.298Z,3532
2017-04-25T06:26:08.268Z,3764
2017-04-25T06:27:07.947Z,3584
2017-04-25T06:28:08.222Z,4148
2017-04-25T06:29:08.504Z,5012
2017-04-25T06:30:08.502Z,4548
2017-04-25T06:31:07.912Z,4592
2017-04-25T06:32:08.141Z,4368
2017-04-25T06:33:08.422Z,4580
2017-04-25T06:34:08.392Z,4492
2017-04-25T06:35:08.397Z,4288
2017-04-25T06:36:08.041Z,4352
2017-04-25T06:37:08.110Z,4492
2017-04-25T06:38:08.025Z,4588
2017-04-25T06:39:08.363Z,3896
2017-04-25T06:40:08.285Z,3704
2017-04-25T06:41:07.955Z,3524
2017-04-25T06:42:07.936Z,3640
2017-04-25T06:43:07.978Z,3976
2017-04-25T06:44:07.881Z,4580
2017-04-25T06:45:08.171Z,5776
2017-04-25T06:46:08.146Z,5844
2017-04-25T06:47:07.835Z,5744
2017-04-25T06:48:07.494Z,6892
2017-04-25T06:49:08.087Z,6872
2017-04-25T06:50:07.750Z,5184
2017-04-25T06:51:07.442Z,5636
2017-04-25T06:52:07.396Z,7752
2017-04-25T06:53:07.703Z,8700
2017-04-25T06:54:07.413Z,8980
2017-04-25T06:55:07.354Z,9200
2017-04-25T06:56:07.318Z,8708
2017-04-25T06:57:07.614Z,7224
2017-04-25T06:58:07.592Z,7560
2017-04-25T06:59:07.574Z,7260
2017-04-25T07:00:07.527Z,6824
2017-04-25T07:01:07.829Z,5824
2017-04-25T07:02:07.810Z,6600
2017-04-25T07:03:07.179Z,9180
2017-04-25T07:04:07.766Z,8420
2017-04-25T07:05:07.541Z,8956
2017-04-25T07:06:07.735Z,9548
2017-04-25T07:07:07.404Z,10012
2017-04-25T07:08:07.683Z,10608
2017-04-25T07:09:07.708Z,15052
2017-04-25T07:10:07.632Z,7532
2017-04-25T07:11:07.622Z,9916
2017-04-25T07:12:07.612Z,8120
2017-04-25T07:13:07.583Z,78912
2017-04-25T07:14:06.651Z,59104
2017-04-25T07:15:07.539Z,75584
2017-04-25T07:16:07.524Z,42400
2017-04-25T07:17:07.504Z,15284
2017-04-25T07:18:07.484Z,10456
2017-04-25T07:19:07.493Z,11340
2017-04-25T07:20:07.181Z,9540
2017-04-25T07:21:07.172Z,10156
2017-04-25T07:22:07.442Z,5324
2017-04-25T07:23:07.394Z,5436
2017-04-25T07:24:07.093Z,5480
2017-04-25T07:25:07.381Z,5708
2017-04-25T07:26:07.031Z,5920
2017-04-25T07:27:07.033Z,6340
2017-04-25T07:28:06.710Z,7460
2017-04-25T07:29:07.285Z,10032
2017-04-25T07:30:07.037Z,9876
2017-04-25T07:31:06.922Z,10420
2017-04-25T07:32:07.236Z,11384
2017-04-25T07:33:06.903Z,13828
2017-04-25T07:34:07.202Z,13564
2017-04-25T07:35:07.173Z,14720
2017-04-25T07:36:07.161Z,16724
2017-04-25T07:37:06.823Z,32768
2017-04-25T07:38:06.812Z,48128
2017-04-25T07:39:06.828Z,23360
2017-04-25T07:40:07.083Z,11956
2017-04-25T07:41:06.495Z,113824
2017-04-25T07:42:07.062Z,106880
2017-04-25T07:43:06.741Z,107808
2017-04-25T07:44:07.035Z,107328
2017-04-25T07:45:07.094Z,109536
2017-04-25T07:46:07.011Z,110912
2017-04-25T07:47:06.988Z,103328
2017-04-25T07:48:06.980Z,9832
2017-04-25T07:49:06.980Z,18592
2017-04-25T07:50:06.973Z,7656
2017-04-25T07:51:06.953Z,88640
2017-04-25T07:52:07.026Z,8340
2017-04-25T07:53:06.616Z,9768
2017-04-25T07:54:06.305Z,7964
2017-04-25T07:55:06.897Z,6172
2017-04-25T07:56:06.575Z,6452
2017-04-25T07:57:06.884Z,7836
2017-04-25T07:58:06.843Z,107872
2017-04-25T07:59:06.531Z,102624
2017-04-25T08:00:06.523Z,101088
2017-04-25T08:01:06.857Z,66880
2017-04-25T08:02:06.903Z,103744
2017-04-25T08:03:06.526Z,8392
2017-04-25T08:04:06.804Z,93024
2017-04-25T08:05:06.764Z,101984
2017-04-25T08:06:06.461Z,104096
2017-04-25T08:07:06.123Z,96320
2017-04-25T08:08:06.454Z,7312
2017-04-25T08:09:06.718Z,5816
2017-04-25T08:10:06.377Z,5980
2017-04-25T08:11:06.682Z,7928
2017-04-25T08:12:06.696Z,6128
2017-04-25T08:13:06.662Z,89056
2017-04-25T08:14:06.340Z,92032
2017-04-25T08:15:06.334Z,98784
2017-04-25T08:16:06.654Z,7400
2017-04-25T08:17:06.387Z,106880
2017-04-25T08:18:06.599Z,102880
2017-04-25T08:19:06.286Z,11588
2017-04-25T08:20:06.268Z,87136
2017-04-25T08:21:06.252Z,11340
2017-04-25T08:22:06.553Z,11836
2017-04-25T08:23:06.223Z,8956
2017-04-25T08:24:06.244Z,7336
2017-04-25T08:25:06.507Z,7616
2017-04-25T08:26:06.204Z,8612
2017-04-25T08:27:06.473Z,10112
2017-04-25T08:28:06.766Z,10660
2017-04-25T08:29:05.833Z,6304
2017-04-25T08:30:06.420Z,8496
2017-04-25T08:31:06.433Z,31104
2017-04-25T08:32:06.433Z,9096
2017-04-25T08:33:06.384Z,7980
2017-04-25T08:34:06.124Z,9568
2017-04-25T08:35:06.073Z,8236
2017-04-25T08:36:06.022Z,6388
2017-04-25T08:37:06.325Z,5996
2017-04-25T08:38:05.743Z,6996
2017-04-25T08:39:05.683Z,73088
2017-04-25T08:40:06.271Z,27808
2017-04-25T08:41:06.263Z,8636
2017-04-25T08:42:06.252Z,56192
2017-04-25T08:43:06.233Z,55360
2017-04-25T08:44:06.204Z,8336
2017-04-25T08:45:05.905Z,5696
2017-04-25T08:46:05.579Z,5180
2017-04-25T08:47:05.853Z,4948
2017-04-25T08:48:05.844Z,5072
2017-04-25T08:49:05.839Z,5808
2017-04-25T08:50:06.132Z,9248
2017-04-25T08:51:06.113Z,22080
2017-04-25T08:52:05.775Z,11500
2017-04-25T08:53:06.067Z,19552
2017-04-25T08:54:05.224Z,13460
2017-04-25T08:55:05.723Z,16416
2017-04-25T08:56:05.440Z,51008
2017-04-25T08:57:05.394Z,54400
2017-04-25T08:58:05.393Z,27712
2017-04-25T08:59:05.975Z,80896
2017-04-25T09:00:05.408Z,22304
2017-04-25T09:01:05.755Z,31616
2017-04-25T09:02:05.620Z,100192
2017-04-25T09:03:05.690Z,33056
2017-04-25T09:04:05.289Z,11232
2017-04-25T09:05:05.280Z,12096
2017-04-25T09:06:05.866Z,17440
2017-04-25T09:07:05.859Z,14232
2017-04-25T09:08:05.619Z,83296
2017-04-25T09:09:05.672Z,11248
2017-04-25T09:10:05.505Z,11340
2017-04-25T09:11:05.488Z,8680
2017-04-25T09:12:05.490Z,7056
2017-04-25T09:13:04.848Z,6632
2017-04-25T09:14:05.746Z,6624
2017-04-25T09:15:05.733Z,33920
2017-04-25T09:16:05.112Z,12932
2017-04-25T09:17:05.483Z,10448
2017-04-25T09:18:05.397Z,8316
2017-04-25T09:19:05.366Z,87488
2017-04-25T09:20:05.635Z,83296
2017-04-25T09:21:05.015Z,9680
2017-04-25T09:22:05.314Z,7504
2017-04-25T09:23:05.590Z,8124
2017-04-25T09:24:04.974Z,16276
2017-04-25T09:25:04.963Z,81024
2017-04-25T09:26:05.540Z,79008
2017-04-25T09:27:05.272Z,77632
2017-04-25T09:28:05.524Z,35872
2017-04-25T09:29:05.535Z,78112
2017-04-25T09:30:04.867Z,79104
2017-04-25T09:31:05.166Z,67328
2017-04-25T09:32:05.195Z,19104
2017-04-25T09:33:05.175Z,45216
2017-04-25T09:34:05.528Z,35456
2017-04-25T09:35:05.421Z,17920
2017-04-25T09:36:05.106Z,11192
2017-04-25T09:37:05.404Z,9724
2017-04-25T09:38:05.113Z,8908
2017-04-25T09:39:04.875Z,76320
2017-04-25T09:40:05.034Z,44864
2017-04-25T09:41:05.460Z,40128
2017-04-25T09:42:05.012Z,17536
2017-04-25T09:43:04.998Z,10328
2017-04-25T09:44:04.985Z,8308
2017-04-25T09:45:04.983Z,7252
2017-04-25T09:46:05.038Z,8212
2017-04-25T09:47:05.323Z,12100
2017-04-25T09:48:05.004Z,12728
2017-04-25T09:49:04.604Z,13568
2017-04-25T09:50:04.905Z,10456
2017-04-25T09:51:05.194Z,8724
2017-04-25T09:52:05.163Z,7944
2017-04-25T09:53:04.860Z,7280
2017-04-25T09:54:05.187Z,7096
2017-04-25T09:55:05.113Z,7364
2017-04-25T09:56:04.805Z,8980
2017-04-25T09:57:05.094Z,8040
2017-04-25T09:58:04.759Z,7104
2017-04-25T09:59:04.769Z,49600
2017-04-25T10:00:04.825Z,6688
2017-04-25T10:01:04.717Z,6280
2017-04-25T10:02:04.694Z,63008
2017-04-25T10:03:04.352Z,33344
2017-04-25T10:04:04.986Z,54592
2017-04-25T10:05:05.044Z,57440
2017-04-25T10:06:04.661Z,7976
2017-04-25T10:07:03.994Z,6268
2017-04-25T10:08:04.584Z,4884
2017-04-25T10:09:04.546Z,4048
2017-04-25T10:10:04.860Z,3292
2017-04-25T10:11:04.534Z,3252
2017-04-25T10:12:04.515Z,3528
2017-04-25T10:13:04.832Z,3844
2017-04-25T10:14:04.772Z,4124
2017-04-25T10:15:04.463Z,4992
2017-04-25T10:16:04.443Z,5028
2017-04-25T10:17:04.739Z,4780
2017-04-25T10:18:04.103Z,4500
2017-04-25T10:19:04.383Z,5792
2017-04-25T10:20:04.130Z,8584
2017-04-25T10:21:04.717Z,13448
2017-04-25T10:22:04.353Z,9436
2017-04-25T10:23:04.662Z,7192
2017-04-25T10:24:04.346Z,5640
2017-04-25T10:25:04.603Z,4148
2017-04-25T10:26:04.665Z,3164
2017-04-25T10:27:04.574Z,2564
2017-04-25T10:28:04.594Z,2292
2017-04-25T10:29:04.513Z,2048
2017-04-25T10:30:04.515Z,1928
2017-04-25T10:31:04.168Z,1780
2017-04-25T10:32:04.584Z,1768
2017-04-25T10:33:04.135Z,2196
2017-04-25T10:34:04.476Z,2880
2017-04-25T10:35:03.784Z,3424
2017-04-25T10:36:04.135Z,4340
2017-04-25T10:37:04.063Z,5372
2017-04-25T10:38:04.105Z,8064
2017-04-25T10:39:04.332Z,8640
2017-04-25T10:40:04.053Z,9016
2017-04-25T10:41:04.042Z,8356
2017-04-25T10:42:03.693Z,7724
2017-04-25T10:43:03.995Z,7820
2017-04-25T10:44:03.930Z,11380
2017-04-25T10:45:03.940Z,11032
2017-04-25T10:46:04.202Z,12544
2017-04-25T10:47:03.890Z,11900
2017-04-25T10:48:03.901Z,15936
2017-04-25T10:49:03.850Z,11568
2017-04-25T10:50:03.509Z,13792
2017-04-25T10:51:03.790Z,14664
2017-04-25T10:52:03.819Z,13480
2017-04-25T10:53:03.466Z,12580
2017-04-25T10:54:03.820Z,13240
2017-04-25T10:55:04.021Z,8624
2017-04-25T10:56:04.015Z,14004
2017-04-25T10:57:03.999Z,9216
2017-04-25T10:58:03.719Z,12840
2017-04-25T10:59:03.357Z,8036
2017-04-25T11:00:03.333Z,6524
2017-04-25T11:01:03.629Z,11372
2017-04-25T11:02:03.953Z,11036
2017-04-25T11:03:03.263Z,10220
2017-04-25T11:04:03.564Z,8956
2017-04-25T11:05:03.552Z,11832
2017-04-25T11:06:03.245Z,11012
2017-04-25T11:07:03.307Z,10200
2017-04-25T11:08:03.187Z,10168
2017-04-25T11:09:03.826Z,10080
2017-04-25T11:10:03.790Z,9584
2017-04-25T11:11:03.174Z,9832
2017-04-25T11:12:03.403Z,5912
2017-04-25T11:13:03.703Z,7776
2017-04-25T11:14:03.427Z,12992
2017-04-25T11:15:03.361Z,9040
2017-04-25T11:16:03.695Z,12560
2017-04-25T11:17:03.686Z,7152
2017-04-25T11:18:03.028Z,5840
2017-04-25T11:19:03.707Z,3572
2017-04-25T11:20:03.581Z,1796
2017-04-25T11:21:02.968Z,708
2017-04-25T11:22:03.693Z,732
2017-04-25T11:23:03.536Z,948
2017-04-25T11:24:02.986Z,828
2017-04-25T11:25:03.509Z,788
2017-04-25T11:26:03.181Z,784
2017-04-25T11:27:03.149Z,832
2017-04-25T11:28:02.831Z,904
2017-04-25T11:29:02.804Z,844
2017-04-25T11:30:03.413Z,1000
2017-04-25T11:31:03.094Z,1232
2017-04-25T11:32:03.044Z,1488
2017-04-25T11:33:03.351Z,1540
2017-04-25T11:34:03.443Z,1736
2017-04-25T11:35:03.016Z,1712
2017-04-25T11:36:02.967Z,2280
2017-04-25T11:37:03.311Z,2684
2017-04-25T11:38:02.944Z,3208
2017-04-25T11:39:03.318Z,3748
2017-04-25T11:40:02.902Z,4440
2017-04-25T11:41:02.874Z,5372
2017-04-25T11:42:03.152Z,7592
2017-04-25T11:43:02.845Z,10640
2017-04-25T11:44:02.813Z,10428
2017-04-25T11:45:02.794Z,13436
2017-04-25T11:46:02.784Z,11800
2017-04-25T11:47:02.767Z,11052
2017-04-25T11:48:02.726Z,10280
2017-04-25T11:49:02.732Z,10088
2017-04-25T11:50:03.004Z,9832
2017-04-25T11:51:02.685Z,9732
2017-04-25T11:52:02.673Z,9736
2017-04-25T11:53:02.984Z,9864
2017-04-25T11:54:02.928Z,7944
2017-04-25T11:55:02.615Z,10784
2017-04-25T11:56:02.595Z,10992
2017-04-25T11:57:02.970Z,10628
2017-04-25T11:58:02.873Z,10676
2017-04-25T11:59:02.555Z,10592
2017-04-25T12:00:02.560Z,10420
2017-04-25T12:01:02.913Z,10236
2017-04-25T12:02:02.786Z,10400
2017-04-25T12:03:02.465Z,10280
2017-04-25T12:04:02.446Z,7964
2017-04-25T12:05:02.804Z,11268
2017-04-25T12:06:02.727Z,7704
2017-04-25T12:07:02.714Z,6780
2017-04-25T12:08:02.069Z,12236
2017-04-25T12:09:02.067Z,12900
2017-04-25T12:10:02.693Z,13260
2017-04-25T12:11:02.370Z,12676
2017-04-25T12:12:02.646Z,12352
2017-04-25T12:13:02.617Z,11144
2017-04-25T12:14:02.588Z,10460
2017-04-25T12:15:02.574Z,7428
2017-04-25T12:16:02.268Z,6392
2017-04-25T12:17:01.943Z,7772
2017-04-25T12:18:02.513Z,12624
2017-04-25T12:19:02.513Z,10548
2017-04-25T12:20:02.517Z,10436
2017-04-25T12:21:02.164Z,11896
2017-04-25T12:22:02.496Z,11808
2017-04-25T12:23:02.434Z,11176
2017-04-25T12:24:02.420Z,10660
2017-04-25T12:25:02.400Z,10460
2017-04-25T12:26:02.086Z,10328
2017-04-25T12:27:02.115Z,10136
2017-04-25T12:28:02.365Z,10052
2017-04-25T12:29:02.021Z,10056
2017-04-25T12:30:02.012Z,10108
2017-04-25T12:31:01.993Z,10292
2017-04-25T12:32:02.294Z,10676
2017-04-25T12:33:02.311Z,10376
2017-04-25T12:34:01.951Z,7720
2017-04-25T12:35:01.953Z,10344
2017-04-25T12:36:01.933Z,10316
2017-04-25T12:37:01.653Z,10392
2017-04-25T12:38:01.917Z,10844
2017-04-25T12:39:01.591Z,11224
2017-04-25T12:40:02.163Z,10952
2017-04-25T12:41:01.542Z,11072
2017-04-25T12:42:02.122Z,7368
2017-04-25T12:43:01.823Z,5012
2017-04-25T12:44:01.537Z,5384
2017-04-25T12:45:02.101Z,5500
2017-04-25T12:46:01.919Z,9816
2017-04-25T12:47:02.047Z,5272
2017-04-25T12:48:01.525Z,5372
2017-04-25T12:49:01.709Z,5716
2017-04-25T12:50:01.997Z,5804
2017-04-25T12:51:01.677Z,10600
2017-04-25T12:52:01.813Z,12488
2017-04-25T12:53:01.644Z,12056
2017-04-25T12:54:01.941Z,11636
2017-04-25T12:55:01.716Z,11224
2017-04-25T12:56:01.927Z,11184
2017-04-25T12:57:01.099Z,10772
2017-04-25T12:58:01.580Z,10512
2017-04-25T12:59:01.853Z,9872
2017-04-25T13:00:01.854Z,9976
2017-04-25T13:01:01.826Z,9312
2017-04-25T13:02:01.815Z,9864
2017-04-25T13:03:01.790Z,9828
2017-04-25T13:04:01.791Z,9976
2017-04-25T13:05:01.757Z,10096
2017-04-25T13:06:01.512Z,9992
2017-04-25T13:07:01.731Z,10012
2017-04-25T13:08:01.730Z,10568
2017-04-25T13:09:01.704Z,10720
2017-04-25T13:10:01.394Z,10408
2017-04-25T13:11:01.663Z,10288
2017-04-25T13:12:01.326Z,10876
2017-04-25T13:13:01.325Z,11224
2017-04-25T13:14:01.429Z,11704
2017-04-25T13:15:01.389Z,6104
2017-04-25T13:16:01.592Z,5620
2017-04-25T13:17:01.562Z,4924
2017-04-25T13:18:01.272Z,4720
2017-04-25T13:19:01.337Z,4932
2017-04-25T13:20:00.599Z,4972
2017-04-25T13:21:01.245Z,5200
2017-04-25T13:22:01.191Z,5152
2017-04-25T13:23:01.178Z,5160
2017-04-25T13:24:01.152Z,4848
2017-04-25T13:25:01.242Z,4484
2017-04-25T13:26:01.135Z,4376
2017-04-25T13:27:01.165Z,4336
2017-04-25T13:28:01.422Z,4412
2017-04-25T13:29:01.374Z,4348
2017-04-25T13:30:01.075Z,4216
2017-04-25T13:31:01.032Z,4104
2017-04-25T13:32:00.402Z,3996
2017-04-25T13:33:01.062Z,3984
2017-04-25T13:34:01.287Z,3904
2017-04-25T13:35:01.274Z,3908
2017-04-25T13:36:01.263Z,4044
2017-04-25T13:37:00.952Z,10164
2017-04-25T13:38:01.211Z,10488
2017-04-25T13:39:00.997Z,10684